Time;durP1;ratioP1;P1;durP2;ratioP2;P2;SDS_P1;SDS_P2;PMS_P1;PMS_P2;Temp;Humidity;BMP_temperature;BMP_pressure;BME280_temperature;BME280_humidity;BME280_pressure;Samples;Min_cycle;Max_cycle;Signal;HPM_P1;HPM_P2
2024/04/19 00:01:30;;;;;;;6.30;1.30;;;8.30;99.90;;;;;;5372190;26;20042;-60
2024/04/19 00:03:57;;;;;;;9.27;1.90;;;8.40;99.90;;;;;;5372378;26;20008;-59
2024/04/19 00:06:24;;;;;;;3.55;1.30;;;8.40;99.90;;;;;;5371927;26;20020;-60
2024/04/19 00:08:51;;;;;;;7.45;1.45;;;8.40;99.90;;;;;;5371829;26;20467;-60
2024/04/19 00:11:18;;;;;;;8.02;2.13;;;8.40;99.90;;;;;;5371979;26;20073;-59
2024/04/19 00:13:45;;;;;;;7.50;1.60;;;8.40;99.90;;;;;;5399669;26;20472;-60
2024/04/19 00:16:12;;;;;;;7.93;1.80;;;8.40;99.90;;;;;;5371958;26;20015;-60
2024/04/19 00:18:39;;;;;;;8.15;1.83;;;8.30;99.90;;;;;;5371807;26;20009;-59
2024/04/19 00:21:06;;;;;;;4.00;1.40;;;8.40;99.90;;;;;;5371807;26;20032;-60
2024/04/19 00:23:32;;;;;;;5.65;1.55;;;8.40;99.90;;;;;;5373154;26;20009;-60
2024/04/19 00:25:59;;;;;;;7.47;1.92;;;8.40;99.90;;;;;;5374887;26;20015;-59
2024/04/19 00:28:36;;;;;;;3.08;1.40;;;8.40;99.90;;;;;;5375172;26;20012;-60
2024/04/19 00:31:02;;;;;;;4.50;1.40;;;8.40;99.90;;;;;;5375189;26;20000;-60
2024/04/19 00:33:29;;;;;;;7.32;1.70;;;8.50;99.90;;;;;;5375204;26;20410;-60
2024/04/19 00:35:57;;;;;;;5.97;1.60;;;8.50;99.90;;;;;;5375331;26;20001;-60
2024/04/19 00:38:23;;;;;;;7.63;1.80;;;8.50;99.90;;;;;;5375091;26;20011;-60
2024/04/19 00:40:50;;;;;;;5.53;1.80;;;8.60;99.90;;;;;;5374889;26;20000;-60
2024/04/19 00:43:17;;;;;;;5.88;1.98;;;8.60;99.90;;;;;;5374960;26;20008;-60
2024/04/19 00:45:44;;;;;;;6.80;2.08;;;8.50;99.90;;;;;;5374721;26;20007;-60
2024/04/19 00:48:11;;;;;;;5.25;1.77;;;8.50;99.90;;;;;;5374832;26;20004;-60
2024/04/19 00:50:50;;;;;;;4.13;1.65;;;8.60;99.90;;;;;;5374683;26;20011;-60
2024/04/19 00:53:17;;;;;;;5.43;1.63;;;8.60;99.90;;;;;;5374721;26;20081;-60
2024/04/19 00:55:44;;;;;;;10.38;2.20;;;8.60;99.90;;;;;;5374700;26;20012;-61
2024/04/19 00:58:11;;;;;;;6.25;1.48;;;8.60;99.90;;;;;;5374591;26;20481;-61
2024/04/19 01:00:38;;;;;;;5.57;1.63;;;8.70;99.90;;;;;;5374556;26;20013;-60
2024/04/19 01:03:05;;;;;;;6.40;1.60;;;8.70;99.90;;;;;;5374713;26;20484;-60
2024/04/19 01:05:32;;;;;;;7.20;1.88;;;8.70;99.90;;;;;;5374669;26;20015;-60
2024/04/19 01:08:19;;;;;;;4.05;1.50;;;8.70;99.90;;;;;;5374414;26;20004;-60
2024/04/19 01:10:45;;;;;;;7.82;1.75;;;8.80;99.90;;;;;;5374558;26;20001;-60
2024/04/19 01:13:12;;;;;;;7.40;1.70;;;8.80;99.90;;;;;;5374486;26;20032;-61
2024/04/19 01:15:39;;;;;;;4.30;1.63;;;8.80;99.90;;;;;;5402103;26;20012;-61
2024/04/19 01:18:07;;;;;;;8.85;1.88;;;8.90;99.90;;;;;;5374467;26;20000;-61
2024/04/19 01:20:34;;;;;;;5.88;2.00;;;8.90;99.90;;;;;;5374458;26;20081;-60
2024/04/19 01:23:00;;;;;;;8.23;1.80;;;8.90;99.90;;;;;;5374413;26;20444;-60
2024/04/19 01:25:27;;;;;;;7.50;2.15;;;8.90;99.90;;;;;;5374138;26;20001;-60
2024/04/19 01:27:54;;;;;;;6.82;1.88;;;8.90;99.90;;;;;;5374301;26;20015;-60
2024/04/19 01:30:21;;;;;;;7.82;1.98;;;9.00;99.90;;;;;;5374179;26;20008;-60
2024/04/19 01:32:48;;;;;;;5.85;1.70;;;9.00;99.90;;;;;;5374265;26;20001;-62
2024/04/19 01:35:15;;;;;;;9.73;1.90;;;9.00;99.90;;;;;;5372434;26;20004;-64
2024/04/19 01:37:42;;;;;;;9.07;2.05;;;9.00;99.90;;;;;;5374206;26;19996;-64
2024/04/19 01:40:09;;;;;;;6.60;1.92;;;9.10;99.90;;;;;;5373992;26;20023;-64
2024/04/19 01:42:35;;;;;;;4.57;1.90;;;9.10;99.90;;;;;;5374124;26;20001;-62
2024/04/19 01:45:02;;;;;;;9.10;2.45;;;9.10;99.90;;;;;;5372484;26;20013;-63
2024/04/19 01:47:29;;;;;;;6.80;1.92;;;9.10;99.90;;;;;;5373805;26;20028;-63
2024/04/19 01:49:56;;;;;;;3.83;1.40;;;9.10;99.90;;;;;;5373960;26;20016;-63
2024/04/19 01:52:23;;;;;;;5.78;2.00;;;9.10;99.90;;;;;;5374106;26;20440;-59
2024/04/19 01:54:50;;;;;;;7.07;2.10;;;9.10;99.90;;;;;;5374106;26;20004;-59
2024/04/19 01:57:17;;;;;;;9.38;2.00;;;9.20;99.90;;;;;;5372093;26;20019;-60
2024/04/19 01:59:44;;;;;;;8.50;1.95;;;9.20;99.90;;;;;;5373810;26;20039;-61
2024/04/19 02:02:11;;;;;;;10.57;2.20;;;9.20;99.90;;;;;;5373852;26;20041;-60
2024/04/19 02:04:38;;;;;;;4.53;1.70;;;9.20;99.90;;;;;;5373835;26;20009;-60
2024/04/19 02:07:05;;;;;;;9.43;2.42;;;9.20;99.90;;;;;;5373813;26;20072;-59
2024/04/19 02:09:32;;;;;;;6.75;2.00;;;9.20;99.90;;;;;;5373858;26;20029;-63
2024/04/19 02:11:59;;;;;;;4.75;1.95;;;9.20;99.90;;;;;;5373809;26;20468;-60
2024/04/19 02:14:26;;;;;;;5.35;2.08;;;9.20;99.90;;;;;;5374986;26;20072;-59
2024/04/19 02:16:53;;;;;;;6.40;2.10;;;9.30;99.90;;;;;;5373627;26;20000;-59
2024/04/19 02:19:20;;;;;;;9.07;2.22;;;9.30;99.90;;;;;;5373751;26;20057;-59
2024/04/19 02:21:47;;;;;;;6.45;1.98;;;9.30;99.90;;;;;;5373712;26;20016;-63
2024/04/19 02:24:14;;;;;;;7.55;2.28;;;9.40;99.90;;;;;;5373766;26;20536;-62
2024/04/19 02:26:41;;;;;;;7.72;2.60;;;9.40;99.90;;;;;;5373448;26;20019;-61
2024/04/19 02:31:53;;;;;;;6.13;2.35;;;9.40;99.90;;;;;;5373513;26;19996;-60
2024/04/19 02:34:20;;;;;;;7.90;2.88;;;9.40;99.90;;;;;;5401138;26;20009;-60
2024/04/19 02:36:47;;;;;;;7.93;2.40;;;9.40;99.90;;;;;;5373423;26;20012;-61
2024/04/19 02:39:14;;;;;;;6.95;2.22;;;9.50;99.90;;;;;;5373283;26;20337;-61
2024/04/19 02:41:41;;;;;;;6.22;1.98;;;9.50;99.90;;;;;;5373340;26;20050;-61
2024/04/19 02:44:08;;;;;;;9.60;2.30;;;9.50;99.90;;;;;;5373302;26;20008;-61
2024/04/19 02:46:35;;;;;;;5.70;2.25;;;9.50;99.90;;;;;;5372572;26;20008;-62
2024/04/19 02:49:01;;;;;;;8.45;2.25;;;9.50;99.90;;;;;;5373405;26;20036;-61
2024/04/19 02:51:28;;;;;;;9.38;2.22;;;9.50;99.90;;;;;;5373424;26;20004;-61
2024/04/19 02:53:55;;;;;;;8.07;2.30;;;9.50;99.90;;;;;;5373366;26;20013;-61
2024/04/19 02:56:22;;;;;;;7.32;2.30;;;9.50;99.90;;;;;;5373028;26;20456;-60
2024/04/19 02:58:49;;;;;;;5.00;2.00;;;9.50;99.90;;;;;;5373034;26;20077;-59
2024/04/19 03:01:16;;;;;;;7.60;2.15;;;9.50;99.90;;;;;;5372659;26;20015;-60
2024/04/19 03:03:43;;;;;;;6.55;2.13;;;9.50;99.90;;;;;;5373092;26;20008;-60
2024/04/19 03:06:10;;;;;;;8.10;2.35;;;9.50;99.90;;;;;;5371257;26;20015;-61
2024/04/19 03:08:37;;;;;;;10.20;3.00;;;9.50;99.90;;;;;;5372826;26;20487;-61
2024/04/19 03:11:06;;;;;;;9.85;2.40;;;9.50;99.90;;;;;;5372895;26;20004;-61
2024/04/19 03:13:34;;;;;;;10.43;2.35;;;9.50;99.90;;;;;;5372941;26;20004;-61
2024/04/19 03:16:00;;;;;;;9.32;2.30;;;9.60;99.90;;;;;;5373007;26;20020;-60
2024/04/19 03:18:41;;;;;;;6.25;2.40;;;9.60;99.90;;;;;;5372783;26;20501;-61
2024/04/19 03:21:08;;;;;;;9.75;2.33;;;9.60;99.90;;;;;;5372900;26;20051;-60
2024/04/19 03:23:35;;;;;;;7.70;2.30;;;9.60;99.90;;;;;;5372788;26;20077;-61
2024/04/19 03:26:02;;;;;;;5.43;2.20;;;9.60;99.90;;;;;;5372477;26;20000;-61
2024/04/19 03:28:29;;;;;;;6.18;2.17;;;9.60;99.90;;;;;;5372589;26;20398;-60
2024/04/19 03:30:55;;;;;;;7.63;2.35;;;9.60;99.90;;;;;;5372663;26;20004;-60
2024/04/19 03:33:22;;;;;;;12.38;2.80;;;9.60;99.90;;;;;;5372365;26;20020;-61
2024/04/19 03:35:49;;;;;;;8.88;3.00;;;9.60;99.90;;;;;;5372566;26;20004;-61
2024/04/19 03:38:17;;;;;;;9.25;2.63;;;9.70;99.90;;;;;;5372464;26;20077;-60
2024/04/19 03:40:44;;;;;;;11.23;3.10;;;9.70;99.90;;;;;;5370928;26;20348;-60
2024/04/19 03:43:11;;;;;;;11.05;2.83;;;9.70;99.90;;;;;;5372417;26;20008;-63
2024/04/19 03:45:41;;;;;;;6.63;2.42;;;9.70;99.90;;;;;;5372541;26;20463;-60
2024/04/19 03:48:08;;;;;;;6.18;2.50;;;9.70;99.90;;;;;;5372275;26;20005;-60
2024/04/19 03:50:35;;;;;;;6.95;2.72;;;9.70;99.90;;;;;;5372273;26;20477;-60
2024/04/19 03:53:02;;;;;;;7.55;2.40;;;9.70;99.90;;;;;;5370531;26;20008;-60
2024/04/19 03:55:29;;;;;;;11.40;2.70;;;9.70;99.90;;;;;;5372342;26;20005;-59
2024/04/19 03:57:55;;;;;;;9.68;2.92;;;9.70;99.90;;;;;;5370532;26;20016;-59
2024/04/19 04:00:22;;;;;;;10.25;2.35;;;9.80;99.90;;;;;;5372199;26;20017;-60
2024/04/19 04:02:49;;;;;;;8.43;2.55;;;9.70;99.90;;;;;;5370301;26;20077;-59
2024/04/19 04:05:16;;;;;;;10.98;2.80;;;9.80;99.90;;;;;;5372169;26;20033;-59
2024/04/19 04:07:43;;;;;;;12.05;2.85;;;9.80;99.90;;;;;;5371965;26;20073;-61
2024/04/19 04:10:10;;;;;;;12.70;2.92;;;9.80;99.90;;;;;;5372058;26;20005;-61
2024/04/19 04:12:37;;;;;;;7.22;2.90;;;9.80;99.90;;;;;;5372051;26;20073;-62
2024/04/19 04:15:04;;;;;;;8.02;2.97;;;9.80;99.90;;;;;;5371881;26;20073;-63
2024/04/19 04:17:30;;;;;;;5.93;2.70;;;9.80;99.90;;;;;;5371858;26;20073;-64
2024/04/19 04:19:57;;;;;;;10.77;2.67;;;9.70;99.90;;;;;;5371826;26;20053;-64
2024/04/19 04:22:24;;;;;;;6.57;2.58;;;9.80;99.90;;;;;;5371771;26;20018;-64
2024/04/19 04:24:51;;;;;;;10.55;2.85;;;9.80;99.90;;;;;;5371987;26;20044;-63
2024/04/19 04:27:18;;;;;;;8.40;2.35;;;9.80;99.90;;;;;;5371485;26;20000;-62
2024/04/19 04:29:45;;;;;;;14.50;3.08;;;9.90;99.90;;;;;;5371514;26;20081;-64
2024/04/19 04:32:12;;;;;;;11.77;3.50;;;9.90;99.90;;;;;;5371665;26;20001;-63
2024/04/19 04:34:39;;;;;;;6.93;2.20;;;9.90;99.90;;;;;;5369946;26;20015;-64
2024/04/19 04:37:06;;;;;;;10.80;2.63;;;10.00;99.90;;;;;;5371709;26;20016;-64
2024/04/19 04:39:33;;;;;;;8.18;2.67;;;9.90;99.90;;;;;;5369797;26;20005;-63
2024/04/19 04:41:59;;;;;;;9.13;2.63;;;10.00;99.90;;;;;;5371522;26;20012;-63
2024/04/19 04:44:32;;;;;;;7.45;2.67;;;10.00;99.90;;;;;;5371357;26;20001;-64
2024/04/19 04:46:59;;;;;;;10.38;2.80;;;10.00;99.90;;;;;;5369714;26;20012;-61
2024/04/19 04:49:27;;;;;;;7.07;2.60;;;10.10;99.90;;;;;;5371295;26;20023;-61
2024/04/19 04:51:53;;;;;;;11.18;2.53;;;10.10;99.90;;;;;;5371179;26;20441;-61
2024/04/19 04:54:20;;;;;;;9.15;2.38;;;10.10;99.90;;;;;;5371435;26;20012;-61
2024/04/19 04:56:47;;;;;;;10.63;2.63;;;10.10;99.90;;;;;;5371356;26;20004;-60
2024/04/19 04:59:14;;;;;;;10.70;3.00;;;10.20;99.90;;;;;;5371146;26;20013;-60
2024/04/19 05:01:41;;;;;;;9.52;2.60;;;10.20;99.90;;;;;;5371183;26;20008;-61
2024/04/19 05:04:08;;;;;;;8.25;2.65;;;10.20;99.90;;;;;;5371174;26;20084;-61
2024/04/19 05:06:35;;;;;;;10.77;3.10;;;10.20;99.90;;;;;;5371082;26;20077;-61
2024/04/19 05:09:03;;;;;;;8.52;2.53;;;10.20;99.90;;;;;;5371633;26;20017;-61
2024/04/19 05:11:30;;;;;;;15.52;3.60;;;10.20;99.90;;;;;;5374551;26;20348;-61
2024/04/19 05:13:57;;;;;;;7.25;2.50;;;10.30;99.90;;;;;;5374586;26;20086;-61
2024/04/19 05:16:24;;;;;;;8.32;2.78;;;10.30;99.90;;;;;;5374567;26;20011;-61
2024/04/19 05:18:51;;;;;;;8.93;2.65;;;10.30;99.90;;;;;;5374536;26;20342;-61
2024/04/19 05:21:18;;;;;;;14.55;3.08;;;10.30;99.90;;;;;;5375533;26;20032;-61
2024/04/19 05:23:46;;;;;;;8.80;2.95;;;10.30;99.90;;;;;;5374486;26;20076;-61
2024/04/19 05:26:13;;;;;;;8.93;2.95;;;10.30;99.90;;;;;;5374197;26;19996;-61
2024/04/19 05:28:40;;;;;;;10.05;2.55;;;10.30;99.90;;;;;;5374312;26;20016;-62
2024/04/19 05:31:06;;;;;;;10.52;2.90;;;10.30;99.90;;;;;;5374407;26;20349;-61
2024/04/19 05:33:33;;;;;;;13.75;2.92;;;10.30;99.90;;;;;;5374538;26;20382;-60
2024/04/19 05:36:00;;;;;;;10.20;2.85;;;10.30;99.90;;;;;;5374324;26;20449;-62
2024/04/19 05:38:27;;;;;;;13.43;2.67;;;10.30;99.90;;;;;;5374301;26;20399;-63
2024/04/19 05:40:54;;;;;;;7.63;2.38;;;10.30;99.90;;;;;;5374253;26;20011;-60
2024/04/19 05:43:21;;;;;;;8.15;2.33;;;10.40;99.90;;;;;;5374264;26;20460;-60
2024/04/19 05:45:48;;;;;;;8.88;2.40;;;10.40;99.90;;;;;;5374066;26;20457;-60
2024/04/19 05:48:15;;;;;;;9.25;2.42;;;10.40;99.90;;;;;;5374132;26;20027;-60
2024/04/19 05:50:47;;;;;;;7.25;2.20;;;10.40;99.90;;;;;;5374019;26;20020;-59
2024/04/19 05:53:14;;;;;;;12.60;2.70;;;10.40;99.90;;;;;;5374118;26;20374;-60
2024/04/19 05:55:41;;;;;;;8.18;2.40;;;10.40;99.90;;;;;;5373862;26;20076;-60
2024/04/19 05:58:08;;;;;;;10.35;2.75;;;10.40;99.90;;;;;;5372339;26;20008;-61
2024/04/19 06:00:35;;;;;;;7.82;2.33;;;10.50;99.90;;;;;;5374181;26;20020;-61
2024/04/19 06:03:02;;;;;;;11.23;2.60;;;10.50;99.90;;;;;;5373960;26;20013;-61
2024/04/19 06:05:29;;;;;;;7.90;2.85;;;10.50;99.90;;;;;;5373886;26;20040;-60
2024/04/19 06:07:56;;;;;;;8.25;1.88;;;10.50;99.90;;;;;;5373821;26;20449;-63
2024/04/19 06:10:23;;;;;;;8.55;2.45;;;10.50;99.90;;;;;;5373751;26;20001;-62
2024/04/19 06:12:50;;;;;;;6.85;1.85;;;10.50;99.90;;;;;;5373784;26;20082;-60
2024/04/19 06:15:17;;;;;;;11.73;2.40;;;10.50;99.90;;;;;;5373853;26;20000;-60
2024/04/19 06:17:44;;;;;;;7.30;2.10;;;10.50;99.90;;;;;;5373636;26;20008;-61
2024/04/19 06:20:11;;;;;;;9.13;2.00;;;10.50;99.90;;;;;;5371705;26;20004;-61
2024/04/19 06:22:38;;;;;;;10.23;2.03;;;10.50;99.90;;;;;;5373081;26;20016;-64
2024/04/19 06:25:05;;;;;;;8.00;2.03;;;10.50;99.90;;;;;;5373534;26;20078;-60
2024/04/19 06:27:32;;;;;;;11.52;2.10;;;10.50;99.90;;;;;;5373250;26;20004;-61
2024/04/19 06:29:59;;;;;;;10.75;2.40;;;10.50;99.90;;;;;;5373439;26;20001;-61
2024/04/19 06:32:25;;;;;;;8.15;1.88;;;10.60;99.90;;;;;;5373352;26;20333;-59
2024/04/19 06:34:52;;;;;;;11.93;2.45;;;10.60;99.90;;;;;;5373276;26;20449;-59
2024/04/19 06:37:19;;;;;;;12.25;2.50;;;10.60;99.90;;;;;;5371766;26;20020;-59
2024/04/19 06:39:47;;;;;;;9.18;2.28;;;10.60;99.90;;;;;;5371656;26;20453;-58
2024/04/19 06:42:31;;;;;;;10.88;2.00;;;10.60;99.90;;;;;;5373585;26;20048;-59
2024/04/19 06:44:57;;;;;;;9.48;2.13;;;10.60;99.90;;;;;;5371751;26;20036;-59
2024/04/19 06:47:24;;;;;;;10.52;2.15;;;10.60;99.90;;;;;;5373010;26;20015;-59
2024/04/19 06:49:51;;;;;;;9.57;2.17;;;10.70;99.90;;;;;;5373051;26;20341;-59
2024/04/19 06:52:18;;;;;;;11.95;2.15;;;10.70;99.90;;;;;;5373068;26;20008;-59
2024/04/19 06:54:45;;;;;;;11.25;2.17;;;10.70;99.90;;;;;;5372963;26;20406;-59
2024/04/19 06:57:12;;;;;;;7.00;1.95;;;10.80;99.90;;;;;;5371422;26;20009;-59
2024/04/19 06:59:39;;;;;;;8.77;2.15;;;10.90;99.90;;;;;;5372857;26;20054;-59
2024/04/19 07:02:06;;;;;;;9.98;2.20;;;10.90;99.90;;;;;;5373082;26;20045;-59
2024/04/19 07:04:33;;;;;;;9.55;2.55;;;10.90;99.90;;;;;;5372933;26;20019;-59
2024/04/19 07:07:00;;;;;;;8.43;1.90;;;10.90;99.90;;;;;;5373037;26;20398;-61
2024/04/19 07:09:27;;;;;;;12.13;2.15;;;10.90;99.90;;;;;;5373575;26;20004;-63
2024/04/19 07:11:54;;;;;;;9.23;2.10;;;11.00;99.90;;;;;;5371128;26;20017;-61
2024/04/19 07:14:21;;;;;;;7.78;1.90;;;11.00;99.90;;;;;;5372832;26;20141;-61
2024/04/19 07:16:48;;;;;;;9.82;2.03;;;10.90;99.90;;;;;;5372809;26;20016;-61
2024/04/19 07:19:15;;;;;;;9.68;2.22;;;10.90;99.90;;;;;;5372711;26;20004;-61
2024/04/19 07:21:42;;;;;;;9.60;1.80;;;10.90;99.90;;;;;;5372621;26;20341;-61
2024/04/19 07:24:09;;;;;;;7.10;1.90;;;10.90;99.90;;;;;;5372561;26;20000;-60
2024/04/19 07:26:38;;;;;;;5.18;1.80;;;10.90;99.90;;;;;;5370654;26;20008;-60
2024/04/19 07:29:05;;;;;;;10.32;2.40;;;10.80;99.90;;;;;;5372354;26;20077;-60
2024/04/19 07:31:32;;;;;;;8.65;1.92;;;10.80;99.90;;;;;;5372556;26;20005;-61
2024/04/19 07:33:59;;;;;;;7.22;2.13;;;10.80;99.90;;;;;;5372514;26;20016;-61
2024/04/19 07:36:26;;;;;;;7.22;1.80;;;10.80;99.90;;;;;;5372602;26;20004;-60
2024/04/19 07:38:53;;;;;;;6.28;1.77;;;10.90;99.90;;;;;;5372516;26;20005;-60
2024/04/19 07:41:20;;;;;;;7.55;1.90;;;10.90;99.90;;;;;;5370692;26;20009;-61
2024/04/19 07:43:47;;;;;;;10.38;1.65;;;11.00;99.90;;;;;;5341769;26;20004;-61
2024/04/19 07:46:21;;;;;;;8.07;1.52;;;11.10;99.90;;;;;;5372399;26;20015;-60
2024/04/19 07:48:48;;;;;;;9.50;1.60;;;11.20;99.90;;;;;;5372262;26;20036;-60
2024/04/19 07:51:15;;;;;;;8.45;1.50;;;11.30;99.90;;;;;;5372414;26;20008;-62
2024/04/19 07:53:42;;;;;;;7.07;1.80;;;11.40;99.90;;;;;;5372218;26;20028;-61
2024/04/19 07:56:09;;;;;;;8.95;1.70;;;11.40;99.90;;;;;;5372126;26;20330;-60
2024/04/19 07:58:36;;;;;;;6.20;1.45;;;11.50;99.90;;;;;;5372067;26;20019;-61
2024/04/19 08:01:04;;;;;;;6.82;1.40;;;11.60;99.90;;;;;;5371752;26;20015;-61
2024/04/19 08:03:31;;;;;;;7.93;2.00;;;11.70;99.90;;;;;;5371624;26;20050;-61
2024/04/19 08:05:58;;;;;;;5.32;1.55;;;11.70;99.90;;;;;;5372122;26;20036;-61
2024/04/19 08:08:25;;;;;;;5.95;1.35;;;11.60;99.90;;;;;;5371840;26;20015;-62
2024/04/19 08:10:52;;;;;;;5.20;1.50;;;11.80;99.90;;;;;;5371684;26;20044;-61
2024/04/19 08:13:19;;;;;;;6.65;1.95;;;11.80;99.90;;;;;;5371795;26;20308;-61
2024/04/19 08:15:45;;;;;;;7.40;1.80;;;11.90;99.90;;;;;;5370941;26;20020;-61
2024/04/19 08:18:12;;;;;;;5.88;1.33;;;12.00;99.90;;;;;;5371763;26;20024;-59
2024/04/19 08:20:39;;;;;;;4.88;1.38;;;12.00;99.90;;;;;;5370202;26;20023;-59
2024/04/19 08:23:07;;;;;;;9.38;1.88;;;12.00;99.90;;;;;;5368086;26;20015;-59
2024/04/19 08:25:34;;;;;;;7.45;1.67;;;11.90;99.90;;;;;;5368235;26;20019;-59
2024/04/19 08:28:00;;;;;;;6.25;1.77;;;11.90;99.90;;;;;;5368135;26;20013;-60
2024/04/19 08:30:28;;;;;;;9.15;1.33;;;11.80;99.90;;;;;;5368360;26;20376;-59
2024/04/19 08:32:55;;;;;;;6.20;1.30;;;11.80;99.90;;;;;;5368895;26;20037;-60
2024/04/19 08:35:22;;;;;;;5.07;1.27;;;11.80;99.90;;;;;;5368811;26;20005;-60
2024/04/19 08:37:50;;;;;;;6.72;1.45;;;11.80;99.90;;;;;;5367997;26;20346;-59
2024/04/19 08:40:17;;;;;;;5.53;1.20;;;11.90;99.90;;;;;;5371520;26;20020;-60
2024/04/19 08:42:44;;;;;;;5.10;1.48;;;11.90;99.90;;;;;;5371389;26;20001;-59
2024/04/19 08:45:11;;;;;;;7.88;1.30;;;12.00;99.90;;;;;;5373772;26;20008;-60
2024/04/19 08:47:38;;;;;;;3.78;1.13;;;12.10;99.90;;;;;;5374844;26;20012;-59
2024/04/19 08:50:05;;;;;;;4.18;1.27;;;12.10;99.90;;;;;;5373043;26;20009;-59
2024/04/19 08:52:32;;;;;;;5.95;1.08;;;12.20;99.90;;;;;;5374631;26;20012;-60
2024/04/19 08:55:19;;;;;;;6.78;1.58;;;12.20;99.90;;;;;;5373447;26;20472;-59
2024/04/19 08:57:46;;;;;;;4.05;1.33;;;12.10;99.90;;;;;;5374739;26;20004;-59
2024/04/19 09:00:13;;;;;;;3.03;1.08;;;12.10;99.90;;;;;;5374836;26;20471;-59
2024/04/19 09:02:43;;;;;;;4.05;1.02;;;12.10;99.90;;;;;;5374335;26;20460;-60
2024/04/19 09:05:10;;;;;;;6.25;1.38;;;12.10;99.90;;;;;;5374534;26;20040;-59
2024/04/19 09:07:38;;;;;;;10.27;1.38;;;12.10;99.90;;;;;;5402126;26;20008;-59
2024/04/19 09:10:05;;;;;;;5.07;0.95;;;12.10;99.90;;;;;;5374433;26;20008;-59
2024/04/19 09:12:32;;;;;;;4.05;1.10;;;12.20;99.90;;;;;;5372942;26;20393;-59
2024/04/19 09:14:59;;;;;;;4.97;1.25;;;12.20;99.90;;;;;;5374402;26;20004;-59
2024/04/19 09:17:26;;;;;;;4.70;0.80;;;12.10;99.90;;;;;;5374360;26;20008;-59
2024/04/19 09:19:53;;;;;;;4.25;1.02;;;12.20;99.90;;;;;;5374360;26;20019;-59
2024/04/19 09:22:20;;;;;;;4.85;1.02;;;12.30;99.90;;;;;;5374382;26;20437;-59
2024/04/19 09:24:52;;;;;;;4.05;0.95;;;12.40;99.90;;;;;;5374167;26;20019;-59
2024/04/19 09:27:21;;;;;;;3.75;0.98;;;12.50;99.90;;;;;;5374100;26;20041;-60
2024/04/19 09:29:48;;;;;;;3.47;0.88;;;12.50;99.90;;;;;;5374115;26;20008;-60
2024/04/19 09:32:15;;;;;;;3.78;1.05;;;12.50;99.90;;;;;;5374210;26;20040;-61
2024/04/19 09:34:42;;;;;;;5.93;1.10;;;12.60;99.90;;;;;;5374117;26;20008;-62
2024/04/19 09:37:09;;;;;;;4.20;0.90;;;12.60;99.90;;;;;;5374188;26;20004;-60
2024/04/19 09:39:35;;;;;;;5.63;0.95;;;12.60;99.90;;;;;;5374090;26;20041;-61
2024/04/19 09:42:02;;;;;;;4.93;1.15;;;12.50;99.90;;;;;;5373987;26;20001;-61
2024/04/19 09:44:29;;;;;;;4.53;1.00;;;12.40;99.90;;;;;;5373869;26;20013;-61
2024/04/19 09:46:56;;;;;;;3.53;0.98;;;12.30;99.90;;;;;;5373995;26;20008;-61
2024/04/19 09:49:25;;;;;;;7.68;1.27;;;12.20;99.90;;;;;;5373790;26;20018;-61
2024/04/19 09:51:52;;;;;;;3.50;1.17;;;12.20;99.90;;;;;;5372322;26;20372;-61
2024/04/19 09:54:18;;;;;;;3.58;1.10;;;12.30;99.90;;;;;;5374014;26;20004;-61
2024/04/19 09:56:45;;;;;;;2.88;0.90;;;12.40;99.90;;;;;;5372177;26;20004;-61
2024/04/19 09:59:12;;;;;;;3.33;1.20;;;12.40;99.90;;;;;;5373522;26;20016;-61
2024/04/19 10:01:39;;;;;;;5.55;1.10;;;12.50;99.90;;;;;;5373780;26;20004;-61
2024/04/19 10:04:09;;;;;;;2.85;1.15;;;12.60;99.90;;;;;;5373809;26;20022;-61
2024/04/19 10:06:37;;;;;;;2.58;0.90;;;12.60;99.90;;;;;;5373738;26;20015;-61
2024/04/19 10:09:13;;;;;;;3.10;0.90;;;12.60;99.90;;;;;;5373700;26;20077;-61
2024/04/19 10:11:39;;;;;;;2.90;0.70;;;12.50;99.90;;;;;;5373634;26;20004;-62
2024/04/19 10:14:06;;;;;;;3.65;1.27;;;12.40;99.90;;;;;;5373718;26;20497;-61
2024/04/19 10:16:33;;;;;;;1.90;0.68;;;12.40;99.90;;;;;;5373839;26;20019;-61
2024/04/19 10:19:00;;;;;;;2.38;0.80;;;12.40;99.90;;;;;;5373544;26;20403;-61
2024/04/19 10:21:27;;;;;;;3.30;0.98;;;12.40;99.90;;;;;;5373712;26;20012;-62
2024/04/19 10:23:54;;;;;;;4.70;0.80;;;12.50;99.90;;;;;;5373522;26;20008;-62
2024/04/19 10:26:21;;;;;;;3.13;1.00;;;12.60;99.90;;;;;;5373302;26;20023;-62
2024/04/19 10:28:48;;;;;;;3.05;0.70;;;12.50;99.90;;;;;;5373489;26;20016;-62
2024/04/19 10:31:15;;;;;;;4.80;0.70;;;12.60;99.90;;;;;;5373563;26;20028;-62
2024/04/19 10:33:42;;;;;;;3.40;0.80;;;12.70;99.90;;;;;;5371713;26;20018;-61
2024/04/19 10:36:09;;;;;;;1.92;0.80;;;12.90;99.90;;;;;;5373514;26;20050;-62
2024/04/19 10:38:36;;;;;;;2.65;0.70;;;13.20;99.90;;;;;;5371884;26;20000;-62
2024/04/19 10:41:04;;;;;;;3.33;0.77;;;13.20;99.90;;;;;;5373409;26;20001;-61
2024/04/19 10:43:31;;;;;;;2.80;0.70;;;13.10;99.90;;;;;;5373270;26;20054;-61
2024/04/19 10:45:58;;;;;;;2.17;0.80;;;13.10;99.90;;;;;;5373254;26;20012;-61
2024/04/19 10:48:25;;;;;;;4.85;0.93;;;12.90;99.90;;;;;;5400965;26;20088;-61
2024/04/19 10:50:54;;;;;;;13.25;6.68;;;12.50;99.90;;;;;;5373287;26;20004;-62
2024/04/19 10:53:21;;;;;;;5.45;3.55;;;12.30;99.90;;;;;;5373316;26;20065;-61
2024/04/19 10:55:48;;;;;;;4.03;1.13;;;12.20;99.90;;;;;;5372978;26;20005;-61
2024/04/19 10:58:15;;;;;;;2.22;1.05;;;12.00;99.90;;;;;;5372961;26;20040;-62
2024/04/19 11:00:42;;;;;;;4.65;2.85;;;11.80;99.90;;;;;;5400728;26;20000;-61
2024/04/19 11:03:09;;;;;;;3.28;1.10;;;11.80;99.90;;;;;;5373166;26;20484;-61
2024/04/19 11:05:45;;;;;;;2.78;0.68;;;11.90;99.90;;;;;;5372962;26;20016;-62
2024/04/19 11:08:12;;;;;;;1.75;0.80;;;12.10;99.90;;;;;;5370463;26;20081;-62
2024/04/19 11:10:39;;;;;;;2.92;0.90;;;12.10;99.90;;;;;;5373082;26;20028;-61
2024/04/19 11:13:06;;;;;;;2.78;0.95;;;12.10;99.90;;;;;;5372827;26;20018;-61
2024/04/19 11:15:33;;;;;;;2.70;0.80;;;12.10;99.90;;;;;;5372942;26;20012;-61
2024/04/19 11:18:13;;;;;;;2.17;0.88;;;12.20;99.90;;;;;;5372866;26;20005;-62
2024/04/19 11:20:40;;;;;;;2.42;0.70;;;12.30;99.90;;;;;;5372996;26;20012;-62
2024/04/19 11:23:11;;;;;;;1.05;0.50;;;12.30;99.90;;;;;;5372632;26;20036;-62
2024/04/19 11:25:39;;;;;;;6.18;0.80;;;12.10;99.90;;;;;;5371077;26;20028;-62
2024/04/19 11:28:07;;;;;;;2.90;0.75;;;11.90;99.90;;;;;;5372609;26;20012;-62
2024/04/19 11:30:34;;;;;;;4.63;1.00;;;11.40;99.90;;;;;;5372727;26;20000;-63
2024/04/19 11:33:01;;;;;;;2.75;0.95;;;11.10;99.90;;;;;;5372929;26;20016;-62
2024/04/19 11:35:28;;;;;;;3.03;1.10;;;10.80;99.90;;;;;;5372607;26;20076;-62
2024/04/19 11:37:55;;;;;;;3.97;1.30;;;10.70;99.90;;;;;;5372308;26;20016;-63
2024/04/19 11:40:22;;;;;;;2.67;1.45;;;10.60;99.90;;;;;;5372412;26;20064;-64
2024/04/19 11:42:52;;;;;;;2.13;1.17;;;10.50;99.90;;;;;;5370939;26;20023;-63
2024/04/19 11:45:19;;;;;;;3.72;1.08;;;10.50;99.90;;;;;;5372687;26;20004;-63
2024/04/19 11:47:46;;;;;;;2.40;1.10;;;10.50;99.90;;;;;;5372400;26;20004;-64
2024/04/19 11:50:13;;;;;;;2.97;1.10;;;10.50;99.90;;;;;;5372130;26;20000;-63
2024/04/19 11:52:40;;;;;;;2.67;0.95;;;10.40;99.90;;;;;;5372566;26;20021;-64
2024/04/19 11:55:06;;;;;;;4.47;1.35;;;10.40;99.90;;;;;;5370613;26;20329;-64
2024/04/19 11:57:33;;;;;;;3.35;1.23;;;10.40;99.90;;;;;;5372270;26;20081;-65
2024/04/19 12:00:00;;;;;;;2.97;0.90;;;10.50;99.90;;;;;;5372541;26;20072;-65
2024/04/19 12:02:29;;;;;;;3.95;1.13;;;10.40;99.90;;;;;;5372348;26;20080;-65
2024/04/19 12:04:56;;;;;;;2.25;1.05;;;10.40;99.90;;;;;;5372156;26;20001;-65
2024/04/19 12:07:23;;;;;;;2.65;0.93;;;10.40;99.90;;;;;;5371784;26;20015;-64
2024/04/19 12:09:50;;;;;;;2.67;1.08;;;10.50;99.90;;;;;;5365993;26;20012;-63
2024/04/19 12:12:19;;;;;;;2.20;1.00;;;10.50;99.90;;;;;;5370927;26;20453;-62
2024/04/19 12:15:07;;;;;;;4.25;1.45;;;10.60;99.90;;;;;;5371536;26;20000;-63
2024/04/19 12:17:37;;;;;;;5.63;3.13;;;10.70;99.90;;;;;;5371593;26;20513;-62
2024/04/19 12:20:05;;;;;;;4.40;2.13;;;10.80;99.90;;;;;;5388686;26;20018;-63
2024/04/19 12:22:45;;;;;;;7.20;5.30;;;11.00;99.90;;;;;;5395142;26;20019;-63
2024/04/19 12:25:25;;;;;;;4.18;1.60;;;11.10;99.90;;;;;;5413317;26;20435;-65
2024/04/19 12:27:53;;;;;;;4.75;1.50;;;11.10;99.90;;;;;;5456431;26;20007;-66
2024/04/19 12:30:21;;;;;;;4.35;1.70;;;11.10;99.90;;;;;;5455159;26;20066;-67
2024/04/19 12:32:48;;;;;;;2.85;1.40;;;11.20;99.90;;;;;;5454525;26;20407;-66
2024/04/19 12:35:16;;;;;;;3.75;1.65;;;11.20;99.90;;;;;;5453669;26;20014;-66
2024/04/19 12:37:43;;;;;;;4.90;2.08;;;11.30;99.90;;;;;;5455782;26;20408;-66
2024/04/19 12:40:10;;;;;;;4.43;1.80;;;11.50;99.90;;;;;;5455374;26;20003;-67
2024/04/19 12:42:38;;;;;;;4.60;1.90;;;11.60;99.90;;;;;;5392505;26;20088;-67
2024/04/19 12:45:05;;;;;;;5.13;2.00;;;11.70;99.90;;;;;;5374977;26;20001;-67
2024/04/19 12:47:32;;;;;;;4.97;1.65;;;11.80;99.90;;;;;;5374646;26;20019;-68
2024/04/19 12:49:59;;;;;;;4.05;1.42;;;11.90;99.90;;;;;;5374931;26;20486;-66
2024/04/19 12:52:25;;;;;;;3.28;1.40;;;12.10;99.90;;;;;;5374601;26;20005;-68